Huvudsida
METAR-TAF:

METAR-TAF

Flygplatser :

Yap International Airport

Yap, Mikronesien

latitud: 09-29N, longitud: 138-05E, höjd: 28 m

Aktuellt väderrapport

Denna rapport gjordes för 39 minuter sedan, klockan 14:50 UTC
Vind 8 kt från väst/sydväst
Temperatur 29°C
Fuktighet 84%
Tryck 1010 hPa
Sikt: 19.3 km
Få moln på en höjd av 1700 ft
Brutna moln på en höjd av 30000 ft

METAR: PTYA 261450Z 25008KT 12SM FEW017 BKN300 29/26 A2982 RMK SLP100 8/101 T02870258 403150275 50002

Tid: 01:29 (15:29 UTC)

Väderprognos

Denna rapport gjordes för 4 timmar och 9 minuter sedan, klockan 11:20 UTC
Prognos gäller från 26 kl. 12 UTC till 27 kl. 12 UTC
Vind 8 kt från väst/sydväst
Sikt: 10 km
Spridda moln på en höjd av 1700 ft
Spridda moln på en höjd av 13000 ft
skurar i närheten

TAF: PTYA 261120Z 2612/2712 24008KT P6SM VCSH SCT017 SCT130

Aktuella väderrapporter och prognoser från 4000 flygplatser (METAR- och TAF-rapporter).

De tillgängliga stationerna syns som gula och röda prickar på kartan.

För musen över prickarna för att se namnen på stationerna.

Klicka sedan för att få väderrapporter och prognoser.

För att ändra kartan: Klicka på de gröna knapparna med ett svart kors på för att zooma in; den gröna knappen med ett streck på för att zooma ut; eller på de gröna pilarna för angränsande kartor.


METAR-TAF: